Time;durP1;ratioP1;P1;durP2;ratioP2;P2;SDS_P1;SDS_P2;PMS_P1;PMS_P2;Temp;Humidity;BMP_temperature;BMP_pressure;BME280_temperature;BME280_humidity;BME280_pressure;Samples;Min_cycle;Max_cycle;Signal;HPM_P1;HPM_P2
2022/05/13 00:01:19;;;;;;;4.50;2.65;;;;;;;17.43;52.25;100612.47;5029606;28;20555;-73
2022/05/13 00:03:46;;;;;;;5.75;2.72;;;;;;;17.25;52.47;100592.38;5027517;28;20061;-73
2022/05/13 00:06:13;;;;;;;5.88;2.35;;;;;;;17.29;52.69;100601.91;5035000;28;20037;-73
2022/05/13 00:08:40;;;;;;;4.90;2.67;;;;;;;17.20;52.97;100602.53;5035519;28;20057;-73
2022/05/13 00:11:08;;;;;;;6.35;2.80;;;;;;;17.19;53.18;100601.69;5043591;28;20052;-73
2022/05/13 00:13:35;;;;;;;6.05;2.70;;;;;;;17.19;53.46;100599.00;5033274;28;20059;-73
2022/05/13 00:16:04;;;;;;;7.47;2.70;;;;;;;17.18;53.59;100593.75;5039707;28;20049;-73
2022/05/13 00:18:32;;;;;;;3.60;2.50;;;;;;;17.18;53.81;100599.97;5042126;28;20056;-73
2022/05/13 00:20:59;;;;;;;4.22;2.42;;;;;;;17.03;54.13;100589.50;5032679;28;20045;-73
2022/05/13 00:23:28;;;;;;;5.32;2.67;;;;;;;16.82;54.97;100576.69;5041454;28;20057;-73
2022/05/13 00:25:55;;;;;;;10.73;2.97;;;;;;;16.86;55.11;100588.00;5037479;28;20057;-74
2022/05/13 00:28:22;;;;;;;3.28;2.20;;;;;;;16.91;54.73;100595.72;5038781;28;20203;-74
2022/05/13 00:30:48;;;;;;;5.75;2.80;;;;;;;16.77;55.16;100591.34;5022560;28;21003;-73
2022/05/13 00:33:17;;;;;;;3.95;2.47;;;;;;;16.77;55.40;100594.88;5044346;28;20052;-74
2022/05/13 00:35:44;;;;;;;5.10;2.45;;;;;;;16.77;54.99;100584.16;5040362;28;20801;-75
2022/05/13 00:38:11;;;;;;;5.88;2.70;;;;;;;16.72;55.43;100588.97;5043370;28;20106;-74
2022/05/13 00:40:40;;;;;;;4.13;2.90;;;;;;;16.69;55.29;100591.00;5031765;28;20118;-75
2022/05/13 00:43:09;;;;;;;7.50;2.85;;;;;;;16.38;55.49;100538.75;5040193;28;20045;-73
2022/05/13 00:45:36;;;;;;;6.00;2.85;;;;;;;16.60;55.96;100588.94;5035774;28;20045;-73
2022/05/13 00:48:03;;;;;;;5.10;2.78;;;;;;;16.49;56.04;100585.19;5039244;28;20048;-72
2022/05/13 00:50:32;;;;;;;4.18;2.88;;;;;;;16.39;56.29;100573.41;5017282;28;20107;-73
2022/05/13 00:53:00;;;;;;;5.18;2.80;;;;;;;16.31;56.06;100551.69;5042272;28;20045;-75
2022/05/13 00:55:39;;;;;;;3.83;2.50;;;;;;;16.47;56.43;100587.09;5042003;28;20045;-74
2022/05/13 00:58:09;;;;;;;9.02;2.50;;;;;;;16.46;57.30;100579.19;5038772;28;20135;-75
2022/05/13 01:00:36;;;;;;;5.38;3.03;;;;;;;16.39;57.59;100578.75;5036458;28;20056;-73
2022/05/13 01:03:05;;;;;;;5.00;2.70;;;;;;;16.22;57.84;100571.00;5038697;28;20049;-72
2022/05/13 01:05:34;;;;;;;4.20;2.72;;;;;;;16.19;58.19;100578.41;5043658;28;20053;-74
2022/05/13 01:08:06;;;;;;;3.45;2.70;;;;;;;16.08;58.25;100571.09;5040445;28;20551;-73
2022/05/13 01:10:35;;;;;;;9.00;2.90;;;;;;;16.12;58.59;100580.63;5037068;28;20049;-74
2022/05/13 01:13:07;;;;;;;4.55;2.67;;;;;;;16.10;59.11;100587.88;5039483;28;20147;-73
2022/05/13 01:15:40;;;;;;;4.80;2.80;;;;;;;16.00;59.33;100581.44;5037847;28;20053;-74
2022/05/13 01:18:08;;;;;;;6.90;3.20;;;;;;;15.93;59.69;100564.94;5039427;28;20069;-73
2022/05/13 01:20:46;;;;;;;6.28;3.05;;;;;;;15.95;60.17;100580.88;5036569;28;20060;-74
2022/05/13 01:23:19;;;;;;;4.70;2.88;;;;;;;16.03;59.96;100586.59;5037570;28;20056;-75
2022/05/13 01:25:56;;;;;;;10.05;3.30;;;;;;;15.87;60.55;100577.88;5021357;28;20060;-74
2022/05/13 01:28:38;;;;;;;3.95;2.63;;;;;;;15.82;61.30;100585.31;5022164;28;20053;-75
2022/05/13 01:31:23;;;;;;;8.38;3.28;;;;;;;15.55;61.52;100553.25;5041712;28;20135;-73
2022/05/13 01:33:50;;;;;;;7.03;3.15;;;;;;;15.26;62.02;100521.31;5038870;28;20069;-74
2022/05/13 01:36:17;;;;;;;5.35;3.15;;;;;;;15.57;62.14;100584.25;5045396;28;20055;-74
2022/05/13 01:38:43;;;;;;;5.57;3.25;;;;;;;15.68;61.85;100596.91;5037323;28;20053;-74
2022/05/13 01:41:12;;;;;;;7.05;3.50;;;;;;;15.52;61.07;100585.47;5043291;28;20087;-74
2022/05/13 01:43:41;;;;;;;5.93;3.10;;;;;;;15.51;61.03;100595.28;5039499;28;20045;-73
2022/05/13 01:46:08;;;;;;;4.47;3.13;;;;;;;15.43;61.36;100593.09;5043419;28;20048;-73
2022/05/13 01:48:36;;;;;;;5.68;3.28;;;;;;;15.31;61.74;100582.34;5046133;28;20075;-74
2022/05/13 01:51:03;;;;;;;4.15;2.88;;;;;;;15.31;61.41;100582.34;5040450;28;20489;-74
2022/05/13 01:53:31;;;;;;;6.63;3.45;;;;;;;15.27;62.00;100586.16;5037071;28;20710;-74
2022/05/13 01:55:58;;;;;;;5.07;3.08;;;;;;;15.14;62.32;100579.88;5044743;28;20145;-75
2022/05/13 01:58:31;;;;;;;4.97;2.85;;;;;;;15.20;62.29;100598.19;5018561;28;20128;-74
2022/05/13 02:00:59;;;;;;;7.82;3.60;;;;;;;15.17;62.28;100603.72;5040665;28;20049;-74
2022/05/13 02:03:44;;;;;;;6.95;3.22;;;;;;;15.06;62.00;100593.72;5045633;28;20053;-74
2022/05/13 02:06:22;;;;;;;7.30;3.47;;;;;;;15.11;62.52;100602.28;5034091;28;20839;-75
2022/05/13 02:08:51;;;;;;;10.13;3.97;;;;;;;15.04;62.50;100606.28;5034023;28;20056;-73
2022/05/13 02:11:19;;;;;;;7.45;3.28;;;;;;;15.00;62.67;100605.63;5039005;28;20045;-74
2022/05/13 02:13:46;;;;;;;5.65;3.20;;;;;;;14.94;62.80;100608.69;5042963;28;20061;-75
2022/05/13 02:16:13;;;;;;;4.47;3.08;;;;;;;14.81;62.92;100602.34;5044224;28;20126;-73
2022/05/13 02:18:41;;;;;;;6.18;3.60;;;;;;;14.86;62.97;100610.94;5041961;28;20536;-75
2022/05/13 02:21:08;;;;;;;5.72;3.05;;;;;;;14.76;63.06;100607.13;5040154;28;20045;-72
2022/05/13 02:23:35;;;;;;;5.57;3.53;;;;;;;14.74;63.41;100609.03;5042324;28;20190;-72
2022/05/13 02:26:06;;;;;;;5.78;3.60;;;;;;;14.68;63.57;100604.91;5040067;28;20118;-76
2022/05/13 02:28:35;;;;;;;4.95;3.10;;;;;;;14.62;63.65;100604.44;5039196;28;20088;-73
2022/05/13 02:31:01;;;;;;;6.00;3.45;;;;;;;14.55;63.94;100611.94;5044304;28;20135;-72
2022/05/13 02:33:30;;;;;;;5.70;3.95;;;;;;;14.52;63.87;100617.44;5036823;28;20048;-73
2022/05/13 02:35:57;;;;;;;4.35;3.17;;;;;;;14.43;63.97;100610.00;5044194;28;20894;-73
2022/05/13 02:38:24;;;;;;;6.38;3.78;;;;;;;14.42;63.91;100610.97;5016029;28;20061;-75
2022/05/13 02:43:43;;;;;;;7.78;3.60;;;;;;;14.29;64.21;100607.28;5041244;28;20049;-72
2022/05/13 02:46:11;;;;;;;6.55;3.67;;;;;;;14.20;64.45;100597.16;5036595;28;20049;-73
2022/05/13 02:48:38;;;;;;;4.32;3.40;;;;;;;14.16;64.79;100592.97;5041657;28;20041;-72
2022/05/13 02:51:06;;;;;;;7.13;3.60;;;;;;;13.85;64.98;100551.31;5034645;28;20152;-72
2022/05/13 02:53:33;;;;;;;7.93;3.60;;;;;;;14.05;65.06;100601.56;5032875;28;20099;-72
2022/05/13 02:55:59;;;;;;;5.25;3.85;;;;;;;14.09;65.18;100611.09;5020283;28;20132;-73
2022/05/13 02:58:26;;;;;;;5.18;3.88;;;;;;;14.10;65.28;100614.63;5035630;28;20096;-72
2022/05/13 03:00:53;;;;;;;5.75;3.30;;;;;;;13.96;65.48;100588.81;5040360;28;20065;-73
2022/05/13 03:03:20;;;;;;;5.47;3.60;;;;;;;13.90;65.08;100581.16;5035723;28;20069;-72
2022/05/13 03:05:47;;;;;;;7.95;3.80;;;;;;;14.03;65.14;100608.78;5015597;28;20080;-73
2022/05/13 03:08:14;;;;;;;7.07;3.53;;;;;;;13.95;65.15;100593.25;5034097;28;20099;-73
2022/05/13 03:10:42;;;;;;;9.35;3.47;;;;;;;13.89;65.15;100588.28;5039052;28;20095;-72
2022/05/13 03:13:09;;;;;;;7.93;3.95;;;;;;;14.06;64.94;100616.59;5034709;28;20075;-72
2022/05/13 03:15:36;;;;;;;7.50;4.13;;;;;;;14.07;64.96;100620.97;5036546;28;20064;-73
2022/05/13 03:18:03;;;;;;;5.63;3.50;;;;;;;14.04;64.94;100618.50;5040593;28;20148;-73
2022/05/13 03:20:30;;;;;;;7.63;3.90;;;;;;;14.03;64.89;100619.44;5035548;28;20053;-74
2022/05/13 03:22:57;;;;;;;7.28;3.60;;;;;;;13.97;65.14;100604.69;5040824;28;20075;-74
2022/05/13 03:25:24;;;;;;;6.30;3.50;;;;;;;14.02;64.73;100615.91;5033355;28;20075;-73
2022/05/13 03:27:51;;;;;;;5.85;3.65;;;;;;;14.01;64.55;100610.66;5034500;28;20098;-73
2022/05/13 03:30:21;;;;;;;8.00;3.78;;;;;;;14.12;64.48;100612.72;5038180;28;20043;-72
2022/05/13 03:32:48;;;;;;;5.72;3.25;;;;;;;14.14;63.98;100613.50;5033069;28;20049;-72
2022/05/13 03:35:16;;;;;;;5.95;3.08;;;;;;;14.17;64.39;100615.97;5019346;28;20052;-74
2022/05/13 03:37:43;;;;;;;6.95;3.35;;;;;;;14.18;63.84;100623.88;5040901;28;20064;-73
2022/05/13 03:40:11;;;;;;;5.75;3.50;;;;;;;14.17;63.64;100614.16;5035751;28;20049;-72
2022/05/13 03:42:39;;;;;;;7.38;3.40;;;;;;;14.18;63.30;100610.56;5037746;28;20148;-73
2022/05/13 03:45:07;;;;;;;5.38;3.00;;;;;;;14.29;63.24;100629.44;5040323;28;20055;-73
2022/05/13 03:47:34;;;;;;;6.30;3.78;;;;;;;14.27;63.22;100606.50;5039278;28;20072;-72
2022/05/13 03:50:02;;;;;;;8.95;3.53;;;;;;;14.31;62.91;100619.56;5037652;28;20067;-72
2022/05/13 03:52:30;;;;;;;5.18;3.00;;;;;;;14.21;62.85;100597.06;5034980;28;20037;-73
2022/05/13 03:54:57;;;;;;;5.97;3.13;;;;;;;14.28;62.81;100610.88;5035015;28;20061;-75
2022/05/13 03:57:24;;;;;;;6.40;3.50;;;;;;;14.29;62.75;100612.59;5017406;28;20077;-75
2022/05/13 03:59:51;;;;;;;5.45;3.20;;;;;;;14.23;62.93;100613.81;5033829;28;20890;-74
2022/05/13 04:02:18;;;;;;;6.25;3.22;;;;;;;14.15;62.99;100597.44;5041606;28;20099;-73
2022/05/13 04:10:15;;;;;;;7.63;3.28;;;;;;;14.17;63.56;100621.28;5043668;28;20339;-73
2022/05/13 04:18:13;;;;;;;6.72;2.83;;;;;;;14.22;62.32;100621.91;5039218;28;20048;-73
2022/05/13 04:20:39;;;;;;;8.50;2.90;;;;;;;14.25;62.05;100619.91;5039833;28;20169;-73
2022/05/13 04:23:06;;;;;;;10.50;3.78;;;;;;;14.16;62.46;100601.81;5041382;28;20084;-71
2022/05/13 04:25:33;;;;;;;7.60;3.00;;;;;;;14.19;62.02;100620.25;5040556;28;20077;-72
2022/05/13 04:27:59;;;;;;;3.28;2.40;;;;;;;14.19;62.18;100628.25;5041848;28;20048;-75
2022/05/13 04:30:26;;;;;;;5.03;2.70;;;;;;;14.19;62.04;100622.94;5038707;28;20053;-74
2022/05/13 04:32:53;;;;;;;11.10;2.90;;;;;;;14.22;62.01;100627.22;5041892;28;20052;-73
2022/05/13 04:35:19;;;;;;;7.53;2.72;;;;;;;14.22;61.78;100628.06;5036292;28;20130;-73
2022/05/13 04:37:46;;;;;;;6.65;2.40;;;;;;;14.26;61.52;100620.78;5045243;28;20049;-71
2022/05/13 04:40:13;;;;;;;6.50;3.20;;;;;;;14.20;61.64;100606.00;5039902;28;20071;-72
2022/05/13 04:42:49;;;;;;;7.30;2.45;;;;;;;14.41;61.23;100627.91;5039260;28;20446;-73
2022/05/13 04:45:24;;;;;;;4.57;2.45;;;;;;;14.55;60.91;100632.41;5045053;28;20056;-72
2022/05/13 04:48:16;;;;;;;8.43;2.55;;;;;;;14.54;60.96;100612.88;5016731;28;20158;-73
2022/05/13 04:50:51;;;;;;;8.77;2.42;;;;;;;14.66;60.08;100627.28;5040786;28;20079;-73
2022/05/13 04:53:25;;;;;;;4.13;2.40;;;;;;;14.80;59.76;100640.63;5044701;28;20184;-74
2022/05/13 04:55:53;;;;;;;4.40;2.30;;;;;;;14.83;59.86;100640.44;5039348;28;20476;-75
2022/05/13 04:58:22;;;;;;;3.75;2.22;;;;;;;14.90;59.14;100648.94;5043675;28;20049;-73
2022/05/13 05:00:51;;;;;;;9.85;2.78;;;;;;;14.98;59.29;100646.66;5040992;28;20120;-72
2022/05/13 05:03:20;;;;;;;6.50;2.47;;;;;;;15.01;59.47;100654.47;5037359;28;20084;-72
2022/05/13 05:05:50;;;;;;;5.55;2.25;;;;;;;15.05;58.63;100664.88;5036561;28;20409;-73
2022/05/13 05:08:17;;;;;;;9.55;3.08;;;;;;;15.06;58.71;100671.94;5042912;28;20067;-72
2022/05/13 05:10:45;;;;;;;8.30;2.55;;;;;;;15.01;58.56;100683.81;5035762;28;20127;-72
2022/05/13 05:13:19;;;;;;;7.18;2.63;;;;;;;14.92;58.99;100684.38;5038891;28;20044;-72
2022/05/13 05:15:45;;;;;;;9.38;2.60;;;;;;;14.83;59.58;100684.91;5040191;28;20131;-73
2022/05/13 05:18:14;;;;;;;10.10;3.00;;;;;;;14.79;60.18;100680.75;5039835;28;20044;-73
2022/05/13 05:20:42;;;;;;;12.77;3.17;;;;;;;14.78;60.40;100679.03;5043090;28;20135;-72
2022/05/13 05:23:42;;;;;;;8.68;2.60;;;;;;;14.83;59.95;100691.09;5042534;28;20099;-74
2022/05/13 05:26:09;;;;;;;9.10;2.60;;;;;;;14.69;60.59;100669.75;5032728;28;20711;-73
2022/05/13 05:28:38;;;;;;;6.20;2.55;;;;;;;14.79;60.44;100680.75;5037791;28;20064;-73
2022/05/13 05:31:06;;;;;;;4.97;2.15;;;;;;;14.83;60.56;100690.25;5025071;28;20505;-73
2022/05/13 05:33:32;;;;;;;4.57;2.17;;;;;;;14.84;60.12;100689.31;5036503;28;20131;-73
2022/05/13 05:35:59;;;;;;;9.82;2.60;;;;;;;14.88;60.04;100705.03;5042145;28;20132;-73
2022/05/13 05:38:26;;;;;;;10.70;2.88;;;;;;;14.91;59.79;100702.19;5032361;28;20052;-72
2022/05/13 05:40:53;;;;;;;12.50;3.00;;;;;;;14.88;60.35;100704.16;5040985;28;20068;-74
2022/05/13 05:43:21;;;;;;;9.57;2.90;;;;;;;14.79;60.29;100688.75;5034455;28;20045;-72
2022/05/13 05:45:48;;;;;;;9.10;2.85;;;;;;;14.91;60.02;100701.34;5042406;28;20056;-73
2022/05/13 05:48:23;;;;;;;11.52;2.70;;;;;;;14.97;60.97;100715.13;5039178;28;20045;-73
2022/05/13 05:50:52;;;;;;;5.00;2.80;;;;;;;14.86;59.77;100692.75;5035190;28;21474;-75
2022/05/13 05:57:13;;;;;;;8.02;2.28;;;;;;;15.05;59.54;100712.03;5039307;28;20576;-75
2022/05/13 05:58:58;;;;;;;;;;;;;;;15.26;58.94;100723.22;5037223;28;20049;-74
2022/05/13 06:01:25;;;;;;;19.13;2.58;;;;;;;15.25;58.74;100711.69;5037907;28;20327;-74
2022/05/13 06:03:52;;;;;;;12.00;2.40;;;;;;;15.34;58.41;100721.78;5042631;28;20297;-74
2022/05/13 06:06:19;;;;;;;8.13;2.13;;;;;;;15.48;57.13;100725.41;5038442;28;20052;-73
2022/05/13 06:08:46;;;;;;;5.57;1.52;;;;;;;15.57;55.70;100727.53;5034755;28;20049;-74
2022/05/13 06:11:13;;;;;;;7.70;1.52;;;;;;;15.66;53.79;100749.16;5038634;28;20122;-72
2022/05/13 06:13:40;;;;;;;6.65;1.60;;;;;;;15.72;54.03;100738.13;5038360;28;20096;-73
2022/05/13 06:16:09;;;;;;;4.90;1.27;;;;;;;15.81;50.79;100744.69;5036712;28;20049;-73
2022/05/13 06:18:37;;;;;;;7.88;1.55;;;;;;;15.87;49.34;100741.63;5035455;28;20515;-73
2022/05/13 06:21:04;;;;;;;4.97;1.55;;;;;;;15.92;48.63;100754.66;5039018;28;20087;-72
2022/05/13 06:23:31;;;;;;;5.78;1.02;;;;;;;16.13;48.62;100751.50;5041479;28;20045;-73
2022/05/13 06:25:58;;;;;;;7.38;1.20;;;;;;;16.35;48.73;100763.47;5041299;28;20118;-74
2022/05/13 06:28:25;;;;;;;3.63;0.98;;;;;;;16.85;48.37;100760.16;5041935;28;20490;-74
2022/05/13 06:30:52;;;;;;;5.53;1.30;;;;;;;17.29;46.07;100756.28;5044578;28;20485;-74
2022/05/13 06:33:18;;;;;;;5.40;1.00;;;;;;;17.69;45.39;100749.88;5034608;28;20065;-73
2022/05/13 06:35:45;;;;;;;5.20;1.10;;;;;;;18.04;45.41;100760.75;5038715;28;20375;-74
2022/05/13 06:38:20;;;;;;;4.25;1.15;;;;;;;18.23;44.79;100750.41;5036990;28;20052;-74
2022/05/13 06:40:48;;;;;;;11.98;3.25;;;;;;;18.47;44.17;100769.19;5033545;28;20072;-73
2022/05/13 06:43:16;;;;;;;4.13;1.40;;;;;;;18.56;45.07;100770.34;5041607;28;20114;-72
2022/05/13 06:45:43;;;;;;;3.47;1.23;;;;;;;18.63;44.87;100768.09;5023418;28;20080;-76
2022/05/13 06:48:10;;;;;;;5.35;1.20;;;;;;;18.49;43.81;100774.44;5034663;28;20054;-74
2022/05/13 06:50:39;;;;;;;5.28;1.20;;;;;;;18.47;44.52;100785.28;5041005;28;20044;-76
2022/05/13 06:53:05;;;;;;;8.50;1.77;;;;;;;18.40;44.67;100775.13;5036787;28;20056;-78
2022/05/13 06:55:32;;;;;;;6.57;1.73;;;;;;;18.71;44.73;100781.81;5040550;28;20084;-79
2022/05/13 06:57:59;;;;;;;8.23;1.52;;;;;;;18.68;44.05;100782.03;5036662;28;20507;-78
2022/05/13 07:00:26;;;;;;;8.07;1.45;;;;;;;18.74;44.10;100781.53;5040913;28;20121;-80
2022/05/13 07:02:53;;;;;;;7.63;1.48;;;;;;;18.39;44.81;100776.97;5040212;28;20087;-78
2022/05/13 07:05:21;;;;;;;6.05;1.40;;;;;;;18.40;44.08;100781.34;5033407;28;20608;-79
2022/05/13 07:07:49;;;;;;;4.90;1.10;;;;;;;18.46;44.85;100778.19;5038023;28;20190;-81
2022/05/13 07:10:16;;;;;;;7.35;1.50;;;;;;;18.33;44.52;100772.03;5040984;28;20045;-79
2022/05/13 07:12:43;;;;;;;4.15;1.25;;;;;;;18.48;45.84;100767.38;5035283;28;20413;-75
2022/05/13 07:15:14;;;;;;;7.97;1.40;;;;;;;18.86;43.93;100759.19;5036985;28;20045;-75
2022/05/13 07:17:43;;;;;;;5.68;1.30;;;;;;;18.60;44.17;100777.22;5030838;28;20075;-75
2022/05/13 07:20:11;;;;;;;6.00;1.30;;;;;;;18.53;44.48;100733.88;5039169;28;20526;-74
2022/05/13 07:22:39;;;;;;;5.63;1.90;;;;;;;18.99;44.51;100759.97;5017920;28;20045;-73
2022/05/13 07:25:07;;;;;;;6.00;1.27;;;;;;;19.12;43.56;100751.81;5027839;28;20053;-74
2022/05/13 07:27:35;;;;;;;6.07;1.92;;;;;;;19.12;43.03;100744.63;5018348;28;20513;-76
2022/05/13 07:30:02;;;;;;;9.55;1.92;;;;;;;19.26;43.65;100757.84;5021415;28;20049;-75
2022/05/13 07:32:29;;;;;;;4.97;1.30;;;;;;;19.62;43.78;100774.78;5033697;28;20083;-74
2022/05/13 07:34:56;;;;;;;9.05;1.33;;;;;;;19.64;42.70;100759.41;5040588;28;20417;-78
2022/05/13 07:37:22;;;;;;;7.30;1.40;;;;;;;19.81;42.60;100775.03;5036562;28;20041;-78
2022/05/13 07:42:35;;;;;;;4.00;1.27;;;;;;;19.72;40.90;100766.84;5035099;28;20073;-77
2022/05/13 07:45:03;;;;;;;6.28;0.90;;;;;;;19.66;41.98;100781.63;5038872;28;20095;-81
2022/05/13 07:47:29;;;;;;;4.55;1.08;;;;;;;19.67;41.53;100777.97;5040974;28;20049;-77
2022/05/13 07:49:56;;;;;;;6.57;1.15;;;;;;;19.41;40.94;100777.28;5037361;28;20501;-78
2022/05/13 07:52:26;;;;;;;5.72;1.20;;;;;;;19.39;41.35;100768.47;5035306;28;20052;-79
2022/05/13 07:54:53;;;;;;;4.53;1.00;;;;;;;19.33;41.36;100774.34;5038536;28;20493;-77
2022/05/13 07:57:20;;;;;;;5.03;1.20;;;;;;;19.31;41.09;100727.94;5040610;28;20057;-78
2022/05/13 08:02:32;;;;;;;4.95;1.13;;;;;;;19.21;41.46;100770.75;5040689;28;20124;-78
2022/05/13 08:04:59;;;;;;;5.25;1.23;;;;;;;19.34;41.70;100753.72;5039303;28;20068;-76
2022/05/13 08:07:26;;;;;;;5.05;1.00;;;;;;;19.13;41.24;100759.75;5034748;28;20049;-77
2022/05/13 08:09:53;;;;;;;6.13;1.40;;;;;;;19.00;42.09;100776.91;5041868;28;20536;-77
2022/05/13 08:12:19;;;;;;;4.30;1.13;;;;;;;18.65;42.86;100787.59;5036972;28;20037;-77
2022/05/13 08:14:46;;;;;;;9.43;1.30;;;;;;;18.73;42.81;100774.50;5038545;28;20056;-78
2022/05/13 08:17:13;;;;;;;4.57;1.23;;;;;;;19.32;42.05;100766.41;5041955;28;20573;-77
2022/05/13 08:19:39;;;;;;;4.00;1.13;;;;;;;19.73;40.74;100780.16;5038669;28;20041;-77
2022/05/13 08:22:06;;;;;;;4.30;0.95;;;;;;;19.68;39.99;100781.47;5044283;28;20488;-78
2022/05/13 08:24:33;;;;;;;7.95;1.27;;;;;;;19.65;38.78;100790.66;5035704;28;20505;-77
2022/05/13 08:27:00;;;;;;;5.20;1.40;;;;;;;19.45;39.53;100781.44;5040740;28;20579;-78
2022/05/13 08:29:26;;;;;;;2.47;0.90;;;;;;;19.15;38.95;100786.50;5038540;28;20074;-77
2022/05/13 08:31:53;;;;;;;3.50;0.88;;;;;;;19.14;37.97;100791.00;5034787;28;20064;-77
2022/05/13 08:34:20;;;;;;;2.17;1.05;;;;;;;18.99;37.78;100780.56;5034835;28;20140;-78
2022/05/13 08:36:48;;;;;;;5.13;1.00;;;;;;;18.98;37.35;100773.50;5037100;28;20041;-77
2022/05/13 08:39:14;;;;;;;3.50;0.90;;;;;;;19.08;37.63;100796.81;5037529;28;20193;-77
2022/05/13 08:42:07;;;;;;;3.85;0.98;;;;;;;18.84;37.88;100804.06;5039131;28;20679;-78
2022/05/13 08:44:34;;;;;;;5.03;0.90;;;;;;;18.95;38.20;100801.41;5036154;28;20132;-76
2022/05/13 08:47:11;;;;;;;4.13;1.20;;;;;;;18.90;36.96;100806.25;5034733;28;20049;-77
2022/05/13 08:49:51;;;;;;;5.63;0.65;;;;;;;19.11;37.09;100806.47;5027623;28;20132;-78
2022/05/13 08:55:22;;;;;;;3.95;0.88;;;;;;;19.50;35.71;100800.78;5040039;28;20060;-76
2022/05/13 08:57:49;;;;;;;2.20;0.80;;;;;;;19.43;36.11;100812.06;5043204;28;20132;-77
2022/05/13 09:00:35;;;;;;;5.38;1.10;;;;;;;19.43;35.64;100812.06;5040203;28;20148;-77
2022/05/13 09:03:26;;;;;;;7.32;1.67;;;;;;;19.53;36.25;100826.53;5037710;28;20041;-78
2022/05/13 09:06:01;;;;;;;4.50;1.15;;;;;;;19.32;35.38;100802.16;5042564;28;20049;-78
2022/05/13 09:08:36;;;;;;;2.30;0.95;;;;;;;19.29;36.05;100821.19;5042189;28;20388;-78
2022/05/13 09:11:23;;;;;;;3.28;1.20;;;;;;;19.19;35.63;100820.19;5041978;28;20045;-78
2022/05/13 09:13:52;;;;;;;5.28;1.23;;;;;;;19.23;36.09;100829.69;5044416;28;20119;-78
2022/05/13 09:16:44;;;;;;;3.28;1.27;;;;;;;19.03;36.24;100836.59;5049762;28;20043;-79
2022/05/13 09:19:18;;;;;;;8.63;1.40;;;;;;;19.10;36.92;100828.91;5015250;28;20101;-77
2022/05/13 09:21:46;;;;;;;3.35;1.00;;;;;;;18.91;37.44;100832.13;5047113;28;20048;-78
2022/05/13 09:24:13;;;;;;;5.20;1.38;;;;;;;18.95;38.67;100827.38;5032192;28;20107;-76
2022/05/13 09:26:43;;;;;;;1.95;1.00;;;;;;;19.11;38.12;100828.81;5045023;28;20045;-78
2022/05/13 09:29:19;;;;;;;4.75;1.35;;;;;;;19.04;38.49;100829.41;5035736;28;20041;-78
2022/05/13 09:32:04;;;;;;;6.30;1.30;;;;;;;19.26;37.99;100824.97;5045666;28;20041;-78
2022/05/13 09:34:46;;;;;;;3.70;1.30;;;;;;;19.44;38.62;100836.13;5043719;28;20055;-77
2022/05/13 09:37:18;;;;;;;7.53;1.83;;;;;;;19.45;37.95;100829.78;5047262;28;20072;-77
2022/05/13 09:39:47;;;;;;;3.45;1.25;;;;;;;19.37;38.47;100812.53;5051727;28;20072;-77
2022/05/13 09:42:33;;;;;;;5.07;1.60;;;;;;;19.60;38.56;100822.41;5042552;28;20037;-77
2022/05/13 09:45:16;;;;;;;7.95;1.77;;;;;;;19.92;37.52;100828.78;5042206;28;20060;-77
2022/05/13 09:47:46;;;;;;;5.07;1.50;;;;;;;19.86;36.88;100810.44;5048178;28;20048;-78
2022/05/13 09:50:38;;;;;;;6.95;1.50;;;;;;;19.58;37.72;100827.88;5043740;28;20139;-77
2022/05/13 09:53:26;;;;;;;4.00;1.40;;;;;;;19.41;39.08;100820.25;5040299;28;20041;-78
2022/05/13 09:55:58;;;;;;;5.25;1.35;;;;;;;19.25;39.29;100817.00;5048591;28;20052;-79
2022/05/13 09:58:33;;;;;;;4.72;1.85;;;;;;;19.18;38.34;100808.59;5040673;28;20037;-78
2022/05/13 10:01:09;;;;;;;4.18;1.50;;;;;;;19.27;38.81;100797.13;5042830;28;20037;-77
2022/05/13 10:03:38;;;;;;;5.15;1.45;;;;;;;19.18;38.00;100811.28;5039153;28;20048;-77
2022/05/13 10:06:09;;;;;;;6.45;1.73;;;;;;;19.15;38.29;100808.81;5041639;28;20412;-78
2022/05/13 10:08:47;;;;;;;4.80;1.35;;;;;;;19.48;37.52;100815.25;5044703;28;20158;-76
2022/05/13 10:14:22;;;;;;;5.47;1.70;;;;;;;19.42;38.52;100791.56;5036957;28;20050;-76
2022/05/13 10:16:51;;;;;;;3.90;1.45;;;;;;;19.68;38.58;100805.66;5022971;28;20437;-78
2022/05/13 10:19:29;;;;;;;8.70;1.45;;;;;;;19.66;38.43;100807.63;5048743;28;20037;-77
2022/05/13 10:22:11;;;;;;;6.65;1.10;;;;;;;19.85;38.06;100814.13;5040120;28;20049;-77
2022/05/13 10:25:05;;;;;;;4.20;1.52;;;;;;;19.84;39.09;100798.09;5038403;28;20101;-78
2022/05/13 10:27:46;;;;;;;3.88;1.55;;;;;;;19.95;37.87;100809.75;5044406;28;20063;-79
2022/05/13 10:30:21;;;;;;;4.82;1.63;;;;;;;19.72;38.43;100808.00;5042686;28;20045;-79
2022/05/13 10:33:08;;;;;;;9.00;1.63;;;;;;;19.40;38.81;100796.19;5044313;28;20057;-79
2022/05/13 10:35:53;;;;;;;5.07;1.50;;;;;;;19.28;38.86;100806.06;5047851;28;20482;-79
2022/05/13 10:38:30;;;;;;;5.35;1.40;;;;;;;19.28;39.17;100814.09;5040827;28;20041;-78
2022/05/13 10:41:12;;;;;;;3.85;1.20;;;;;;;19.14;39.10;100809.78;5039784;28;20474;-77
2022/05/13 10:43:46;;;;;;;3.40;1.30;;;;;;;19.03;40.12;100799.03;5047196;28;20049;-77
2022/05/13 10:46:34;;;;;;;4.88;1.50;;;;;;;18.97;39.90;100771.78;5037167;28;20049;-77
2022/05/13 10:49:28;;;;;;;11.23;1.60;;;;;;;19.13;39.71;100807.22;5040924;28;20041;-78
2022/05/13 10:52:22;;;;;;;3.33;1.23;;;;;;;19.19;38.84;100810.31;5047411;28;20088;-77
2022/05/13 10:55:09;;;;;;;6.20;1.27;;;;;;;19.17;39.11;100811.38;5046123;28;20048;-77
2022/05/13 10:58:01;;;;;;;4.40;1.40;;;;;;;19.18;39.25;100797.84;5042627;28;20048;-79
2022/05/13 11:00:48;;;;;;;5.88;1.55;;;;;;;19.49;38.77;100806.22;5040104;28;20041;-78
2022/05/13 11:03:54;;;;;;;5.65;1.48;;;;;;;19.66;38.13;100795.06;5044672;28;20512;-78
2022/05/13 11:06:36;;;;;;;8.50;1.40;;;;;;;19.70;38.64;100788.44;5041593;28;20079;-77
2022/05/13 11:09:37;;;;;;;5.68;1.42;;;;;;;19.80;38.24;100805.56;5021999;28;20053;-78
2022/05/13 11:12:36;;;;;;;2.83;1.30;;;;;;;19.78;37.93;100803.97;5040284;28;20078;-79
2022/05/13 11:15:28;;;;;;;4.50;1.53;;;;;;;19.74;38.11;100798.00;5037081;28;20115;-77
2022/05/13 11:18:36;;;;;;;4.95;1.50;;;;;;;19.68;38.59;100809.22;5035013;28;20408;-78
2022/05/13 11:21:20;;;;;;;4.18;1.40;;;;;;;19.79;38.09;100813.75;5035748;28;20045;-78
2022/05/13 11:27:09;;;;;;;3.60;1.13;;;;;;;19.52;38.52;100771.09;5043318;28;20037;-78
2022/05/13 11:30:07;;;;;;;10.88;1.67;;;;;;;19.73;38.16;100798.97;5037838;28;20115;-78
2022/05/13 11:32:56;;;;;;;4.18;1.67;;;;;;;19.91;38.41;100792.13;5020597;28;20045;-79
2022/05/13 11:35:29;;;;;;;5.15;1.70;;;;;;;19.86;37.45;100788.94;5049787;28;20489;-75
2022/05/13 11:38:03;;;;;;;2.92;1.30;;;;;;;19.94;36.67;100791.91;5041884;28;20446;-78
2022/05/13 11:40:45;;;;;;;6.22;1.60;;;;;;;20.21;37.12;100790.66;5035796;28;20044;-77
2022/05/13 11:43:54;;;;;;;9.57;1.57;;;;;;;20.52;37.22;100800.66;5040250;28;20128;-81
2022/05/13 11:46:33;;;;;;;7.55;1.92;;;;;;;20.62;37.05;100793.53;5046555;28;20537;-79
2022/05/13 11:49:13;;;;;;;2.95;1.25;;;;;;;20.58;36.32;100792.09;5026744;28;20052;-78
2022/05/13 11:51:39;;;;;;;5.68;1.58;;;;;;;20.26;36.79;100794.69;5043092;28;20818;-78
2022/05/13 11:54:41;;;;;;;6.47;1.45;;;;;;;19.93;37.88;100795.56;5047051;28;20049;-79
2022/05/13 11:57:23;;;;;;;4.78;1.45;;;;;;;20.09;38.42;100797.03;5017792;28;20461;-77
2022/05/13 12:00:16;;;;;;;4.60;1.23;;;;;;;20.00;37.64;100730.53;5039189;28;20045;-77
2022/05/13 12:02:56;;;;;;;4.60;1.50;;;;;;;20.69;37.21;100787.66;5011698;28;20045;-77
2022/05/13 12:05:23;;;;;;;4.93;1.42;;;;;;;20.69;37.23;100788.50;5022437;28;20076;-75
2022/05/13 12:07:53;;;;;;;2.80;1.35;;;;;;;20.99;36.94;100785.09;5016075;28;20547;-77
2022/05/13 12:10:37;;;;;;;2.78;1.15;;;;;;;21.17;35.79;100777.28;5026832;28;20046;-78
2022/05/13 12:13:32;;;;;;;6.95;1.48;;;;;;;21.22;36.20;100777.78;5015489;28;20072;-77
2022/05/13 12:16:08;;;;;;;3.90;0.93;;;;;;;21.26;35.97;100788.16;5012101;28;20067;-79
2022/05/13 12:18:55;;;;;;;4.93;1.40;;;;;;;21.14;36.15;100777.53;5026059;28;20096;-78